createdAt,value
2023-07-18T00:00:56.427Z,19.55
2023-07-18T00:03:32.277Z,19.74
2023-07-18T00:06:04.867Z,19.29
2023-07-18T00:08:39.893Z,19.33
2023-07-18T00:11:12.066Z,19.16
2023-07-18T00:13:44.196Z,19.64
2023-07-18T00:16:16.577Z,19.51
2023-07-18T00:18:49.262Z,19.53
2023-07-18T00:21:22.157Z,19.31
2023-07-18T00:23:54.388Z,19.41
2023-07-18T00:26:26.602Z,19.23
2023-07-18T00:29:00.250Z,19.12
2023-07-18T00:31:32.581Z,19.10
2023-07-18T00:34:05.064Z,19.43
2023-07-18T00:36:37.766Z,19.37
2023-07-18T00:39:09.894Z,19.36
2023-07-18T00:41:42.031Z,19.20
2023-07-18T00:44:14.186Z,19.29
2023-07-18T00:46:47.314Z,18.87
2023-07-18T00:49:19.551Z,19.10
2023-07-18T00:51:52.021Z,19.29
2023-07-18T00:54:25.312Z,19.25
2023-07-18T00:56:57.713Z,19.25
2023-07-18T00:59:31.992Z,19.26
2023-07-18T01:02:07.782Z,19.21
2023-07-18T01:04:43.433Z,19.08
2023-07-18T01:07:17.056Z,19.15
2023-07-18T01:09:49.899Z,19.14
2023-07-18T01:12:21.983Z,19.14
2023-07-18T01:14:54.158Z,19.02
2023-07-18T01:17:26.528Z,18.91
2023-07-18T01:19:59.688Z,18.61
2023-07-18T01:22:32.435Z,18.70
2023-07-18T01:25:08.243Z,18.35
2023-07-18T01:27:40.892Z,19.05
2023-07-18T01:30:15.153Z,18.30
2023-07-18T01:32:50.134Z,18.82
2023-07-18T01:35:26.787Z,18.68
2023-07-18T01:38:00.075Z,18.19
2023-07-18T01:40:32.584Z,18.36
2023-07-18T01:43:09.483Z,18.63
2023-07-18T01:45:41.843Z,17.96
2023-07-18T01:48:14.298Z,18.20
2023-07-18T01:50:48.850Z,18.43
2023-07-18T01:53:23.356Z,18.51
2023-07-18T01:55:59.807Z,17.85
2023-07-18T01:58:31.895Z,18.39
2023-07-18T02:01:08.709Z,18.79
2023-07-18T02:03:40.943Z,18.05
2023-07-18T02:06:13.325Z,18.26
2023-07-18T02:08:45.715Z,18.72
2023-07-18T02:11:18.146Z,18.54
2023-07-18T02:13:53.458Z,18.70
2023-07-18T02:16:25.598Z,18.68
2023-07-18T02:19:02.162Z,18.63
2023-07-18T02:21:34.378Z,18.40
2023-07-18T02:24:10.426Z,18.59
2023-07-18T02:26:43.580Z,18.02
2023-07-18T02:29:17.482Z,18.29
2023-07-18T02:31:50.513Z,18.00
2023-07-18T02:34:24.640Z,18.35
2023-07-18T02:36:56.889Z,18.31
2023-07-18T02:39:31.603Z,18.57
2023-07-18T02:42:04.394Z,18.29
2023-07-18T02:44:36.583Z,18.28
2023-07-18T02:47:08.752Z,18.29
2023-07-18T02:49:41.832Z,18.48
2023-07-18T02:52:16.875Z,18.46
2023-07-18T02:54:52.016Z,18.30
2023-07-18T02:57:24.493Z,18.18
2023-07-18T03:00:00.000Z,18.42
2023-07-18T03:02:34.661Z,18.01
2023-07-18T03:05:08.582Z,18.40
2023-07-18T03:07:40.701Z,18.38
2023-07-18T03:10:12.998Z,18.27
2023-07-18T03:12:46.701Z,18.34
2023-07-18T03:15:21.147Z,18.15
2023-07-18T03:17:53.699Z,18.27
2023-07-18T03:20:26.034Z,17.90
2023-07-18T03:23:00.448Z,17.56
2023-07-18T03:25:32.928Z,17.45
2023-07-18T03:28:07.491Z,18.27
2023-07-18T03:30:41.511Z,18.22
2023-07-18T03:33:13.866Z,17.81
2023-07-18T03:35:47.801Z,18.17
2023-07-18T03:38:20.247Z,17.66
2023-07-18T03:40:52.621Z,17.28
2023-07-18T03:43:25.112Z,18.00
2023-07-18T03:45:57.960Z,17.81
2023-07-18T03:48:31.027Z,17.32
2023-07-18T03:51:09.792Z,17.29
2023-07-18T03:53:43.108Z,17.22
2023-07-18T03:56:16.466Z,17.71
2023-07-18T03:58:51.837Z,17.66
2023-07-18T04:01:24.243Z,17.53
2023-07-18T04:03:57.294Z,17.63
2023-07-18T04:06:30.168Z,16.93
2023-07-18T04:09:02.553Z,17.72
2023-07-18T04:11:34.912Z,17.93
2023-07-18T04:14:08.014Z,17.82
2023-07-18T04:16:40.675Z,17.18
2023-07-18T04:19:13.109Z,17.06
2023-07-18T04:21:49.535Z,17.30
2023-07-18T04:24:22.642Z,17.76
2023-07-18T04:26:54.845Z,17.78
2023-07-18T04:29:27.057Z,17.53
2023-07-18T04:31:59.874Z,17.75
2023-07-18T04:34:32.533Z,17.21
2023-07-18T04:37:07.495Z,17.35
2023-07-18T04:39:39.621Z,17.43
2023-07-18T04:42:15.992Z,17.20
2023-07-18T04:44:48.876Z,17.61
2023-07-18T04:47:21.645Z,17.41
2023-07-18T04:49:54.989Z,17.55
2023-07-18T04:52:27.502Z,17.77
2023-07-18T04:55:00.081Z,16.95
2023-07-18T04:57:35.909Z,17.71
2023-07-18T05:00:09.885Z,17.51
2023-07-18T05:02:42.708Z,17.30
2023-07-18T05:05:15.121Z,17.74
2023-07-18T05:07:48.408Z,17.40
2023-07-18T05:10:24.253Z,17.84
2023-07-18T05:12:59.183Z,17.29
2023-07-18T05:15:31.412Z,17.42
2023-07-18T05:18:04.755Z,17.38
2023-07-18T05:20:37.050Z,17.89
2023-07-18T05:23:09.848Z,17.80
2023-07-18T05:25:42.175Z,17.87
2023-07-18T05:28:14.370Z,17.70
2023-07-18T05:30:49.512Z,17.26
2023-07-18T05:33:21.672Z,17.74
2023-07-18T05:35:54.079Z,18.10
2023-07-18T05:38:26.585Z,17.73
2023-07-18T05:40:58.749Z,18.23
2023-07-18T05:43:30.801Z,18.37
2023-07-18T05:46:02.780Z,18.48
2023-07-18T05:48:35.007Z,18.58
2023-07-18T05:51:09.874Z,18.69
2023-07-18T05:53:41.942Z,18.70
2023-07-18T05:56:13.894Z,18.80
2023-07-18T05:58:46.393Z,18.69
2023-07-18T06:01:19.314Z,18.79
2023-07-18T06:03:51.640Z,18.88
2023-07-18T06:06:23.704Z,19.05
2023-07-18T06:08:56.195Z,19.10
2023-07-18T06:11:28.156Z,19.28
2023-07-18T06:14:01.032Z,19.41
2023-07-18T06:16:33.760Z,19.35
2023-07-18T06:19:05.994Z,19.52
2023-07-18T06:21:38.074Z,19.34
2023-07-18T06:24:18.869Z,19.67
2023-07-18T06:26:51.969Z,19.80
2023-07-18T06:29:25.727Z,19.92
2023-07-18T06:31:57.928Z,20.10
2023-07-18T06:34:31.518Z,19.77
2023-07-18T06:37:03.779Z,20.13
2023-07-18T06:39:37.046Z,20.08
2023-07-18T06:42:12.353Z,20.24
2023-07-18T06:44:44.442Z,20.26
2023-07-18T06:47:16.503Z,20.37
2023-07-18T06:49:48.495Z,20.34
2023-07-18T06:52:20.579Z,20.18
2023-07-18T06:54:54.729Z,20.13
2023-07-18T06:57:26.700Z,20.55
2023-07-18T06:59:58.840Z,20.47
2023-07-18T07:02:31.078Z,20.69
2023-07-18T07:05:03.141Z,20.77
2023-07-18T07:07:35.105Z,20.71
2023-07-18T07:10:10.233Z,21.08
2023-07-18T07:12:42.480Z,21.04
2023-07-18T07:15:14.634Z,21.19
2023-07-18T07:17:46.730Z,21.39
2023-07-18T07:20:20.619Z,21.56
2023-07-18T07:22:55.931Z,21.47
2023-07-18T07:25:32.056Z,21.59
2023-07-18T07:28:07.637Z,21.28
2023-07-18T07:30:39.749Z,21.67
2023-07-18T07:33:12.108Z,21.62
2023-07-18T07:35:44.900Z,21.90
2023-07-18T07:38:21.681Z,22.06
2023-07-18T07:40:56.998Z,21.89
2023-07-18T07:43:28.969Z,21.96
2023-07-18T07:46:05.927Z,22.25
2023-07-18T07:48:38.106Z,22.23
2023-07-18T07:51:14.696Z,21.63
2023-07-18T07:53:46.916Z,22.36
2023-07-18T07:56:19.230Z,22.28
2023-07-18T07:59:05.101Z,22.30
2023-07-18T08:01:42.897Z,22.28
2023-07-18T08:04:15.122Z,22.48
2023-07-18T08:06:47.234Z,22.64
2023-07-18T08:09:19.217Z,22.72
2023-07-18T08:11:51.761Z,22.83
2023-07-18T08:14:24.153Z,22.89
2023-07-18T08:16:56.182Z,22.93
2023-07-18T08:19:28.675Z,23.01
2023-07-18T08:22:03.762Z,23.19
2023-07-18T08:24:35.986Z,23.25
2023-07-18T08:27:08.411Z,22.87
2023-07-18T08:29:43.279Z,22.96
2023-07-18T08:32:15.621Z,22.70
2023-07-18T08:34:47.640Z,22.92
2023-07-18T08:37:19.708Z,23.08
2023-07-18T08:39:55.020Z,22.84
2023-07-18T08:42:28.897Z,23.17
2023-07-18T08:45:01.612Z,23.19
2023-07-18T08:47:33.926Z,23.01
2023-07-18T08:50:09.336Z,22.70
2023-07-18T08:52:41.573Z,23.41
2023-07-18T08:55:13.799Z,23.60
2023-07-18T08:57:48.212Z,23.80
2023-07-18T09:00:22.039Z,23.81
2023-07-18T09:02:54.394Z,23.89
2023-07-18T09:05:38.802Z,23.93
2023-07-18T09:08:10.907Z,23.78
2023-07-18T09:10:43.075Z,24.00
2023-07-18T09:13:15.253Z,24.07
2023-07-18T09:15:47.999Z,23.81
2023-07-18T09:18:20.031Z,24.15
2023-07-18T09:20:56.244Z,24.23
2023-07-18T09:23:28.313Z,24.26
2023-07-18T09:26:29.026Z,24.12
2023-07-18T09:29:02.347Z,24.03
2023-07-18T09:31:34.747Z,24.04
2023-07-18T09:34:13.822Z,24.09
2023-07-18T09:37:02.364Z,24.14
2023-07-18T09:39:38.260Z,23.91
2023-07-18T09:42:13.569Z,24.33
2023-07-18T09:45:04.714Z,24.44
2023-07-18T09:47:44.994Z,24.56
2023-07-18T09:50:17.322Z,24.24
2023-07-18T09:52:51.480Z,24.18
2023-07-18T09:55:28.503Z,23.94
2023-07-18T09:58:02.140Z,23.43
2023-07-18T10:00:36.911Z,23.80
2023-07-18T10:03:10.490Z,23.88
2023-07-18T10:05:43.948Z,24.15
2023-07-18T10:08:16.727Z,24.53
2023-07-18T10:11:07.467Z,24.52
2023-07-18T10:14:07.073Z,24.98
2023-07-18T10:16:43.080Z,25.02
2023-07-18T10:19:20.127Z,24.78
2023-07-18T10:21:58.151Z,24.53
2023-07-18T10:24:33.312Z,24.68
2023-07-18T10:27:10.238Z,24.48
2023-07-18T10:30:04.714Z,24.47
2023-07-18T10:32:39.593Z,24.20
2023-07-18T10:35:14.685Z,24.37
2023-07-18T10:37:57.179Z,24.35
2023-07-18T10:40:41.865Z,24.20
2023-07-18T10:43:18.272Z,24.24
2023-07-18T10:45:50.504Z,23.71
2023-07-18T10:48:22.611Z,24.40
2023-07-18T10:50:55.582Z,24.57
2023-07-18T10:53:29.816Z,24.69
2023-07-18T10:56:02.141Z,24.87
2023-07-18T10:58:35.200Z,25.06
2023-07-18T11:01:10.646Z,25.22
2023-07-18T11:03:48.438Z,25.46
2023-07-18T11:06:22.834Z,25.52
2023-07-18T11:08:54.885Z,25.66
2023-07-18T11:11:26.903Z,25.71
2023-07-18T11:14:00.816Z,25.85
2023-07-18T11:16:33.036Z,25.89
2023-07-18T11:19:08.326Z,25.82
2023-07-18T11:21:40.980Z,25.74
2023-07-18T11:24:13.424Z,25.94
2023-07-18T11:26:45.553Z,26.13
2023-07-18T11:29:27.049Z,26.19
2023-07-18T11:32:06.096Z,26.41
2023-07-18T11:34:38.228Z,26.33
2023-07-18T11:37:10.263Z,26.42
2023-07-18T11:39:48.323Z,26.31
2023-07-18T11:42:21.158Z,25.89
2023-07-18T11:44:56.444Z,26.40
2023-07-18T11:47:28.568Z,26.40
2023-07-18T11:50:02.662Z,26.24
2023-07-18T11:52:35.550Z,26.40
2023-07-18T11:55:08.239Z,26.32
2023-07-18T11:57:40.191Z,26.55
2023-07-18T12:00:16.818Z,26.66
2023-07-18T12:02:49.896Z,26.76
2023-07-18T12:05:24.888Z,26.78
2023-07-18T12:07:58.289Z,26.91
2023-07-18T12:10:30.311Z,26.88
2023-07-18T12:13:02.586Z,26.89
2023-07-18T12:15:37.123Z,26.83
2023-07-18T12:18:10.411Z,26.92
2023-07-18T12:20:42.484Z,26.58
2023-07-18T12:23:14.498Z,26.80
2023-07-18T12:25:46.660Z,27.13
2023-07-18T12:28:18.732Z,27.06
2023-07-18T12:30:50.875Z,27.08
2023-07-18T12:33:24.780Z,26.73
2023-07-18T12:35:56.905Z,26.93
2023-07-18T12:38:30.145Z,26.64
2023-07-18T12:41:05.876Z,26.96
2023-07-18T12:43:37.961Z,27.27
2023-07-18T12:46:10.350Z,27.36
2023-07-18T12:51:17.362Z,27.28
2023-07-18T12:53:50.011Z,27.25
2023-07-18T12:56:22.978Z,27.36
2023-07-18T12:58:55.008Z,27.33
2023-07-18T13:01:27.178Z,27.29
2023-07-18T13:04:03.858Z,27.23
2023-07-18T13:06:36.199Z,27.48
2023-07-18T13:09:08.272Z,27.16
2023-07-18T13:11:40.697Z,27.49
2023-07-18T13:14:18.678Z,27.48
2023-07-18T13:16:51.038Z,27.54
2023-07-18T13:19:23.743Z,27.78
2023-07-18T13:21:56.342Z,27.89
2023-07-18T13:24:28.373Z,27.94
2023-07-18T13:27:02.992Z,27.99
2023-07-18T13:29:36.770Z,28.02
2023-07-18T13:32:09.790Z,27.95
2023-07-18T13:34:42.014Z,28.17
2023-07-18T13:37:14.151Z,28.08
2023-07-18T13:39:46.309Z,28.11
2023-07-18T13:42:18.382Z,28.14
2023-07-18T13:44:53.315Z,28.30
2023-07-18T13:47:25.656Z,28.48
2023-07-18T13:49:57.914Z,28.52
2023-07-18T13:52:31.879Z,28.68
2023-07-18T13:55:04.360Z,28.79
2023-07-18T13:57:36.511Z,28.85
2023-07-18T14:00:09.553Z,28.68
2023-07-18T14:02:41.614Z,28.59
2023-07-18T14:05:14.276Z,28.43
2023-07-18T14:07:46.430Z,28.51
2023-07-18T14:10:18.570Z,28.38
2023-07-18T14:12:52.849Z,28.32
2023-07-18T14:15:27.831Z,28.39
2023-07-18T14:18:02.286Z,28.54
2023-07-18T14:20:34.425Z,28.27
2023-07-18T14:23:07.472Z,28.46
2023-07-18T14:25:39.570Z,28.06
2023-07-18T14:28:11.632Z,28.50
2023-07-18T14:30:44.416Z,28.37
2023-07-18T14:33:18.206Z,28.47
2023-07-18T14:35:50.358Z,28.43
2023-07-18T14:38:22.477Z,28.55
2023-07-18T14:40:55.369Z,28.49
2023-07-18T14:43:34.657Z,28.31
2023-07-18T14:46:07.533Z,28.34
2023-07-18T14:48:39.573Z,28.37
2023-07-18T14:51:11.585Z,28.46
2023-07-18T14:53:43.702Z,28.36
2023-07-18T14:56:15.954Z,28.74
2023-07-18T14:58:47.923Z,28.44
2023-07-18T15:01:20.152Z,28.37
2023-07-18T15:03:52.249Z,28.38
2023-07-18T15:06:24.328Z,28.33
2023-07-18T15:08:56.592Z,28.17
2023-07-18T15:11:30.257Z,28.19
2023-07-18T15:14:02.593Z,27.99
2023-07-18T15:16:37.337Z,28.47
2023-07-18T15:19:10.424Z,28.43
2023-07-18T15:21:42.717Z,28.39
2023-07-18T15:24:14.799Z,28.41
2023-07-18T15:26:46.855Z,28.76
2023-07-18T15:29:18.863Z,28.78
2023-07-18T15:31:51.022Z,28.67
2023-07-18T15:34:23.110Z,28.63
2023-07-18T15:36:55.461Z,28.46
2023-07-18T15:39:27.690Z,28.37
2023-07-18T15:42:01.243Z,28.19
2023-07-18T15:44:34.092Z,28.39
2023-07-18T15:47:06.839Z,28.54
2023-07-18T15:49:38.878Z,28.56
2023-07-18T15:52:11.050Z,28.62
2023-07-18T15:54:43.104Z,28.56
2023-07-18T15:57:15.129Z,28.47
2023-07-18T15:59:47.273Z,28.67
2023-07-18T16:02:19.504Z,28.53
2023-07-18T16:04:51.662Z,28.65
2023-07-18T16:07:23.760Z,28.52
2023-07-18T16:09:59.627Z,28.52
2023-07-18T16:12:31.799Z,28.54
2023-07-18T16:15:04.547Z,28.47
2023-07-18T16:17:37.022Z,28.57
2023-07-18T16:20:09.595Z,28.74
2023-07-18T16:22:50.138Z,28.74
2023-07-18T16:25:22.186Z,28.66
2023-07-18T16:27:54.212Z,28.56
2023-07-18T16:30:26.322Z,28.54
2023-07-18T16:32:58.600Z,28.34
2023-07-18T16:35:48.467Z,28.26
2023-07-18T16:38:21.782Z,28.05
2023-07-18T16:40:53.743Z,28.26
2023-07-18T16:43:25.967Z,27.87
2023-07-18T16:46:02.927Z,28.20
2023-07-18T16:48:35.031Z,28.27
2023-07-18T16:51:07.630Z,28.30
2023-07-18T16:53:39.879Z,28.15
2023-07-18T16:56:12.890Z,27.91
2023-07-18T16:58:46.189Z,28.34
2023-07-18T17:01:20.817Z,28.48
2023-07-18T17:03:58.507Z,28.68
2023-07-18T17:06:31.209Z,28.17
2023-07-18T17:09:03.563Z,28.29
2023-07-18T17:11:35.743Z,28.23
2023-07-18T17:14:07.765Z,28.00
2023-07-18T17:16:40.170Z,27.91
2023-07-18T17:19:12.433Z,28.02
2023-07-18T17:21:44.550Z,28.13
2023-07-18T17:24:16.596Z,28.03
2023-07-18T17:26:51.818Z,28.11
2023-07-18T17:29:23.862Z,28.16
2023-07-18T17:31:56.016Z,28.31
2023-07-18T17:34:28.377Z,28.13
2023-07-18T17:37:03.916Z,27.89
2023-07-18T17:39:37.693Z,28.58
2023-07-18T17:42:11.967Z,28.64
2023-07-18T17:44:44.203Z,28.56
2023-07-18T17:47:16.250Z,28.07
2023-07-18T17:49:48.494Z,27.98
2023-07-18T17:52:21.086Z,28.37
2023-07-18T17:54:55.884Z,28.03
2023-07-18T17:57:28.394Z,27.57
2023-07-18T18:00:03.531Z,27.81
2023-07-18T18:02:36.299Z,27.64
2023-07-18T18:05:36.255Z,27.52
2023-07-18T18:08:08.420Z,27.50
2023-07-18T18:10:42.507Z,27.61
2023-07-18T18:13:15.368Z,27.40
2023-07-18T18:16:05.119Z,27.35
2023-07-18T18:18:47.559Z,27.26
2023-07-18T18:21:20.211Z,27.64
2023-07-18T18:23:52.721Z,27.20
2023-07-18T18:26:28.084Z,27.42
2023-07-18T18:29:02.567Z,27.31
2023-07-18T18:31:34.830Z,27.14
2023-07-18T18:34:07.760Z,26.94
2023-07-18T18:36:40.049Z,26.56
2023-07-18T18:39:13.303Z,26.90
2023-07-18T18:41:46.010Z,26.22
2023-07-18T18:44:18.046Z,26.86
2023-07-18T18:46:50.225Z,26.71
2023-07-18T18:49:27.128Z,26.62
2023-07-18T18:52:01.734Z,26.69
2023-07-18T18:54:33.874Z,26.69
2023-07-18T18:57:08.495Z,26.42
2023-07-18T18:59:40.598Z,26.68
2023-07-18T19:02:15.341Z,26.62
2023-07-18T19:04:49.212Z,26.64
2023-07-18T19:07:23.212Z,26.63
2023-07-18T19:09:55.322Z,25.96
2023-07-18T19:12:27.612Z,26.59
2023-07-18T19:15:03.994Z,26.53
2023-07-18T19:17:36.197Z,26.54
2023-07-18T19:20:10.395Z,26.45
2023-07-18T19:22:42.569Z,26.41
2023-07-18T19:25:14.623Z,26.25
2023-07-18T19:27:47.647Z,26.28
2023-07-18T19:30:19.687Z,26.44
2023-07-18T19:32:51.864Z,26.25
2023-07-18T19:35:24.021Z,26.08
2023-07-18T19:37:56.196Z,26.14
2023-07-18T19:40:28.403Z,25.55
2023-07-18T19:43:03.404Z,25.71
2023-07-18T19:45:45.124Z,25.32
2023-07-18T19:48:17.444Z,24.81
2023-07-18T19:50:49.855Z,24.40
2023-07-18T19:53:22.073Z,24.55
2023-07-18T19:56:06.584Z,24.67
2023-07-18T19:58:38.789Z,24.31
2023-07-18T20:01:11.181Z,25.02
2023-07-18T20:04:00.413Z,24.80
2023-07-18T20:06:33.095Z,24.19
2023-07-18T20:09:08.116Z,24.33
2023-07-18T20:11:40.591Z,24.26
2023-07-18T20:14:12.742Z,25.01
2023-07-18T20:16:48.252Z,24.24
2023-07-18T20:19:20.471Z,24.34
2023-07-18T20:21:52.692Z,24.77
2023-07-18T20:24:25.053Z,24.92
2023-07-18T20:27:07.408Z,24.23
2023-07-18T20:29:40.080Z,24.83
2023-07-18T20:32:18.386Z,24.71
2023-07-18T20:34:53.480Z,24.65
2023-07-18T20:37:25.813Z,24.05
2023-07-18T20:40:02.742Z,24.21
2023-07-18T20:42:35.157Z,24.02
2023-07-18T20:45:12.547Z,24.76
2023-07-18T20:47:45.108Z,24.07
2023-07-18T20:50:17.608Z,24.42
2023-07-18T20:52:52.536Z,24.03
2023-07-18T20:55:24.879Z,24.29
2023-07-18T20:57:57.151Z,24.48
2023-07-18T21:00:29.450Z,24.02
2023-07-18T21:03:04.897Z,23.95
2023-07-18T21:05:37.138Z,24.65
2023-07-18T21:08:10.379Z,24.65
2023-07-18T21:10:42.381Z,24.64
2023-07-18T21:13:14.463Z,24.57
2023-07-18T21:15:46.597Z,24.57
2023-07-18T21:18:18.697Z,24.55
2023-07-18T21:20:50.881Z,24.40
2023-07-18T21:23:24.083Z,24.49
2023-07-18T21:25:56.522Z,24.37
2023-07-18T21:28:28.656Z,23.93
2023-07-18T21:31:00.689Z,24.07
2023-07-18T21:33:32.736Z,24.28
2023-07-18T21:36:05.913Z,24.30
2023-07-18T21:38:38.003Z,24.17
2023-07-18T21:41:10.003Z,24.13
2023-07-18T21:43:42.174Z,23.99
2023-07-18T21:46:14.539Z,24.13
2023-07-18T21:48:46.612Z,23.95
2023-07-18T21:51:18.749Z,23.92
2023-07-18T21:53:51.072Z,23.90
2023-07-18T21:56:23.525Z,23.97
2023-07-18T21:58:55.544Z,23.95
2023-07-18T22:01:27.738Z,23.64
2023-07-18T22:04:00.306Z,23.55
2023-07-18T22:06:32.222Z,23.79
2023-07-18T22:09:05.767Z,23.77
2023-07-18T22:11:39.564Z,23.66
2023-07-18T22:14:11.692Z,23.72
2023-07-18T22:16:43.742Z,23.63
2023-07-18T22:19:17.160Z,23.58
2023-07-18T22:21:49.120Z,23.64
2023-07-18T22:24:21.260Z,23.56
2023-07-18T22:26:53.426Z,23.59
2023-07-18T22:29:25.704Z,23.55
2023-07-18T22:31:57.796Z,23.54
2023-07-18T22:34:29.864Z,23.18
2023-07-18T22:37:01.884Z,23.41
2023-07-18T22:39:37.244Z,23.50
2023-07-18T22:42:19.068Z,23.35
2023-07-18T22:44:51.431Z,23.29
2023-07-18T22:47:23.484Z,23.30
2023-07-18T22:49:55.960Z,23.33
2023-07-18T22:52:27.929Z,23.35
2023-07-18T22:54:59.990Z,23.18
2023-07-18T22:57:34.657Z,23.34
2023-07-18T23:00:09.842Z,23.30
2023-07-18T23:02:42.263Z,23.28
2023-07-18T23:05:14.782Z,23.23
2023-07-18T23:07:46.860Z,23.14
2023-07-18T23:10:19.066Z,23.09
2023-07-18T23:12:51.276Z,23.04
2023-07-18T23:15:23.352Z,23.09
2023-07-18T23:17:55.477Z,23.07
2023-07-18T23:20:27.858Z,22.71
2023-07-18T23:23:00.118Z,23.00
2023-07-18T23:25:32.276Z,22.94
2023-07-18T23:28:05.974Z,22.92
2023-07-18T23:30:43.382Z,22.84
2023-07-18T23:33:15.583Z,22.67
2023-07-18T23:35:48.641Z,22.84
2023-07-18T23:38:20.745Z,22.81
2023-07-18T23:40:52.745Z,22.63
2023-07-18T23:43:31.459Z,22.77
2023-07-18T23:46:04.874Z,22.69
2023-07-18T23:48:39.585Z,22.71
2023-07-18T23:51:12.000Z,22.67
2023-07-18T23:53:44.265Z,22.62
2023-07-18T23:56:16.531Z,22.53
2023-07-18T23:58:48.514Z,22.59
